Terminal Aerodrome Forecast
Issued by NWS

Home | Current Version | Previous Version | Text Only | Print | Product List | Glossary On
Versions: 1 2 3 4 5 6 7 8 9 10 11 12 13 14 15 16 17 18 19 20
000
FTUS45 KGJT 302320
TAFTEX
TAF
KTEX 302320Z 0100/0124 26006KT P6SM VCTS SCT050 BKN080CB
      TEMPO 0100/0102 VRB10KT -TSRA BKN050CB
     FM010200 14004KT P6SM SCT035 SCT080
     FM011500 VRB03KT P6SM SCT060
     FM011800 26007KT P6SM SCT090=

USA.gov is the U.S. government's official web portal to all federal, state and local government web resources and services.